createdAt,value
2018-10-19T00:01:37.511Z,25.50
2018-10-19T00:04:05.010Z,28.95
2018-10-19T00:06:32.495Z,25.27
2018-10-19T00:08:59.982Z,27.05
2018-10-19T00:11:27.434Z,25.90
2018-10-19T00:13:55.453Z,25.25
2018-10-19T00:16:23.030Z,27.95
2018-10-19T00:18:51.171Z,26.52
2018-10-19T00:21:18.725Z,26.12
2018-10-19T00:23:50.346Z,28.47
2018-10-19T00:26:17.782Z,29.12
2018-10-19T00:31:12.094Z,27.35
2018-10-19T00:33:44.308Z,28.25
2018-10-19T00:36:11.727Z,24.77
2018-10-19T00:38:39.304Z,26.37
2018-10-19T00:41:06.801Z,26.93
2018-10-19T00:43:34.291Z,26.30
2018-10-19T00:46:01.798Z,29.23
2018-10-19T00:48:29.203Z,26.00
2018-10-19T00:50:57.295Z,27.00
2018-10-19T00:53:24.800Z,26.55
2018-10-19T00:55:52.223Z,28.77
2018-10-19T00:58:19.696Z,27.32
2018-10-19T01:00:47.725Z,25.35
2018-10-19T01:03:16.117Z,24.20
2018-10-19T01:05:43.486Z,29.80
2018-10-19T01:08:16.069Z,28.73
2018-10-19T01:10:43.526Z,25.72
2018-10-19T01:13:10.966Z,28.10
2018-10-19T01:15:38.460Z,28.85
2018-10-19T01:18:05.876Z,25.43
2018-10-19T01:20:34.302Z,27.40
2018-10-19T01:23:01.809Z,26.33
2018-10-19T01:25:30.182Z,26.33
2018-10-19T01:27:57.685Z,26.27
2018-10-19T01:30:25.308Z,28.87
2018-10-19T01:32:52.705Z,26.57
2018-10-19T01:35:20.116Z,25.80
2018-10-19T01:37:48.083Z,27.75
2018-10-19T01:40:15.666Z,25.90
2018-10-19T01:42:43.160Z,24.30
2018-10-19T01:45:12.038Z,24.57
2018-10-19T01:47:40.117Z,25.72
2018-10-19T01:50:09.027Z,23.75
2018-10-19T01:52:36.442Z,21.45
2018-10-19T01:55:03.942Z,21.60
2018-10-19T01:57:32.119Z,22.87
2018-10-19T01:59:59.554Z,22.80
2018-10-19T02:02:27.063Z,23.87
2018-10-19T02:04:54.452Z,25.10
2018-10-19T02:07:22.419Z,24.40
2018-10-19T02:09:49.887Z,25.27
2018-10-19T02:12:17.395Z,22.93
2018-10-19T02:14:44.807Z,24.00
2018-10-19T02:17:12.310Z,23.92
2018-10-19T02:19:39.711Z,21.80
2018-10-19T02:22:07.587Z,21.40
2018-10-19T02:24:35.199Z,21.68
2018-10-19T02:27:02.643Z,20.77
2018-10-19T02:29:30.311Z,22.05
2018-10-19T02:31:57.802Z,21.87
2018-10-19T02:34:25.260Z,20.00
2018-10-19T02:36:52.752Z,21.02
2018-10-19T02:39:20.642Z,22.52
2018-10-19T02:41:48.392Z,21.37
2018-10-19T02:44:15.854Z,22.65
2018-10-19T02:46:43.261Z,22.77
2018-10-19T02:49:10.754Z,21.33
2018-10-19T02:51:38.352Z,21.25
2018-10-19T02:54:06.564Z,22.00
2018-10-19T02:56:34.030Z,23.40
2018-10-19T02:59:01.558Z,20.88
2018-10-19T03:01:28.951Z,22.35
2018-10-19T03:03:56.378Z,22.42
2018-10-19T03:06:23.909Z,22.95
2018-10-19T03:08:55.992Z,21.48
2018-10-19T03:11:23.426Z,23.45
2018-10-19T03:13:51.009Z,22.25
2018-10-19T03:16:18.547Z,21.77
2018-10-19T03:18:46.278Z,22.58
2018-10-19T03:21:13.807Z,20.72
2018-10-19T03:23:41.150Z,22.82
2018-10-19T03:28:36.342Z,22.25
2018-10-19T03:31:05.186Z,24.18
2018-10-19T03:33:32.586Z,26.05
2018-10-19T03:36:00.834Z,22.90
2018-10-19T03:38:28.264Z,24.70
2018-10-19T03:40:56.575Z,23.45
2018-10-19T03:43:23.982Z,22.32
2018-10-19T03:45:51.501Z,24.95
2018-10-19T03:48:18.949Z,24.32
2018-10-19T03:50:46.910Z,26.77
2018-10-19T03:53:14.313Z,23.80
2018-10-19T03:55:41.938Z,24.52
2018-10-19T03:58:09.666Z,24.75
2018-10-19T04:00:37.123Z,23.98
2018-10-19T04:03:04.606Z,22.55
2018-10-19T04:05:32.133Z,22.93
2018-10-19T04:07:59.579Z,24.40
2018-10-19T04:10:27.030Z,22.60
2018-10-19T04:12:54.547Z,27.07
2018-10-19T04:15:21.916Z,24.43
2018-10-19T04:17:49.417Z,26.87
2018-10-19T04:20:16.772Z,28.47
2018-10-19T04:22:44.194Z,32.75
2018-10-19T04:25:11.539Z,27.90
2018-10-19T04:27:39.084Z,30.05
2018-10-19T04:30:08.039Z,28.52
2018-10-19T04:32:35.479Z,41.40
2018-10-19T04:35:03.100Z,34.60
2018-10-19T04:37:30.401Z,28.35
2018-10-19T04:39:57.926Z,27.82
2018-10-19T04:42:25.539Z,25.10
2018-10-19T04:44:52.937Z,26.25
2018-10-19T04:47:20.429Z,25.17
2018-10-19T04:49:47.961Z,26.05
2018-10-19T04:52:15.668Z,24.82
2018-10-19T04:54:43.126Z,26.30
2018-10-19T04:57:10.959Z,29.27
2018-10-19T04:59:38.486Z,29.63
2018-10-19T05:02:05.871Z,30.15
2018-10-19T05:04:33.345Z,29.02
2018-10-19T05:07:00.675Z,29.15
2018-10-19T05:09:28.088Z,26.02
2018-10-19T05:11:55.481Z,28.15
2018-10-19T05:14:22.883Z,31.55
2018-10-19T05:16:50.283Z,27.42
2018-10-19T05:19:17.681Z,28.65
2018-10-19T05:21:45.101Z,26.17
2018-10-19T05:24:13.126Z,28.32
2018-10-19T05:26:40.487Z,24.67
2018-10-19T05:29:07.963Z,26.62
2018-10-19T05:31:35.227Z,26.30
2018-10-19T05:34:02.610Z,26.65
2018-10-19T05:36:30.027Z,23.60
2018-10-19T05:38:57.447Z,25.57
2018-10-19T05:41:24.833Z,24.12
2018-10-19T05:43:52.281Z,23.80
2018-10-19T05:46:19.676Z,33.05
2018-10-19T05:48:47.205Z,25.50
2018-10-19T05:51:14.622Z,27.75
2018-10-19T05:53:42.057Z,26.25
2018-10-19T05:56:09.720Z,27.37
2018-10-19T05:58:37.482Z,25.90
2018-10-19T06:01:05.034Z,28.77
2018-10-19T06:03:32.538Z,27.95
2018-10-19T06:05:59.923Z,23.87
2018-10-19T06:08:27.633Z,26.87
2018-10-19T06:10:54.964Z,25.30
2018-10-19T06:13:22.335Z,26.80
2018-10-19T06:15:49.629Z,29.80
2018-10-19T06:18:16.958Z,30.08
2018-10-19T06:20:44.263Z,24.90
2018-10-19T06:23:11.710Z,28.45
2018-10-19T06:25:39.056Z,25.62
2018-10-19T06:28:06.503Z,28.27
2018-10-19T06:30:34.438Z,33.53
2018-10-19T06:33:01.809Z,33.92
2018-10-19T06:35:29.224Z,26.90
2018-10-19T06:37:56.692Z,31.15
2018-10-19T06:40:24.038Z,24.82
2018-10-19T06:42:51.499Z,27.30
2018-10-19T06:45:18.850Z,26.25
2018-10-19T06:47:46.150Z,27.45
2018-10-19T06:50:13.528Z,26.05
2018-10-19T06:52:41.328Z,27.17
2018-10-19T06:55:09.255Z,28.73
2018-10-19T06:57:36.591Z,26.82
2018-10-19T07:00:04.512Z,26.45
2018-10-19T07:02:31.809Z,28.87
2018-10-19T07:04:59.492Z,30.05
2018-10-19T07:07:26.878Z,26.87
2018-10-19T07:09:54.200Z,29.80
2018-10-19T07:12:21.586Z,27.15
2018-10-19T07:14:49.257Z,28.45
2018-10-19T07:17:16.971Z,27.55
2018-10-19T07:19:44.226Z,26.55
2018-10-19T07:22:11.614Z,29.02
2018-10-19T07:24:38.945Z,28.02
2018-10-19T07:27:06.343Z,31.33
2018-10-19T07:29:33.746Z,32.53
2018-10-19T07:32:01.076Z,29.02
2018-10-19T07:34:28.762Z,27.25
2018-10-19T07:36:56.159Z,29.57
2018-10-19T07:39:23.799Z,28.27
2018-10-19T07:41:51.215Z,31.37
2018-10-19T07:44:18.563Z,29.00
2018-10-19T07:46:46.174Z,28.83
2018-10-19T07:49:13.591Z,28.42
2018-10-19T07:51:40.988Z,31.52
2018-10-19T07:54:08.447Z,26.75
2018-10-19T07:56:36.325Z,29.72
2018-10-19T07:59:04.464Z,30.30
2018-10-19T08:01:31.848Z,30.23
2018-10-19T08:03:59.238Z,28.12
2018-10-19T08:06:26.632Z,26.70
2018-10-19T08:08:53.995Z,27.87
2018-10-19T08:11:21.343Z,27.67
2018-10-19T08:13:49.250Z,28.50
2018-10-19T08:16:16.592Z,29.95
2018-10-19T08:18:43.880Z,30.10
2018-10-19T08:21:11.566Z,24.40
2018-10-19T08:23:38.787Z,28.25
2018-10-19T08:26:06.108Z,28.42
2018-10-19T08:28:33.374Z,30.05
2018-10-19T08:31:00.670Z,25.45
2018-10-19T08:33:28.641Z,30.05
2018-10-19T08:35:56.005Z,26.20
2018-10-19T08:38:23.310Z,25.00
2018-10-19T08:40:50.600Z,25.55
2018-10-19T08:43:18.071Z,27.30
2018-10-19T08:45:45.231Z,26.40
2018-10-19T08:48:12.547Z,23.67
2018-10-19T08:50:39.852Z,26.35
2018-10-19T08:53:07.249Z,24.05
2018-10-19T08:55:34.496Z,23.77
2018-10-19T08:58:01.997Z,25.80
2018-10-19T09:00:29.169Z,23.30
2018-10-19T09:02:56.499Z,26.65
2018-10-19T09:05:23.874Z,24.25
2018-10-19T09:07:51.667Z,23.32
2018-10-19T09:10:18.991Z,21.55
2018-10-19T09:12:46.482Z,22.62
2018-10-19T09:15:13.785Z,23.52
2018-10-19T09:17:40.982Z,24.20
2018-10-19T09:20:08.240Z,24.82
2018-10-19T09:22:35.519Z,22.15
2018-10-19T09:25:02.896Z,24.00
2018-10-19T09:27:30.290Z,21.70
2018-10-19T09:29:57.587Z,23.40
2018-10-19T09:32:24.893Z,21.20
2018-10-19T09:34:52.237Z,24.92
2018-10-19T09:37:19.496Z,21.68
2018-10-19T09:39:46.805Z,21.45
2018-10-19T09:42:14.161Z,23.45
2018-10-19T09:44:41.443Z,21.73
2018-10-19T09:47:08.807Z,21.40
2018-10-19T09:49:36.079Z,22.42
2018-10-19T09:52:03.423Z,22.02
2018-10-19T09:54:30.785Z,23.07
2018-10-19T09:56:58.196Z,20.77
2018-10-19T09:59:25.432Z,22.17
2018-10-19T10:01:52.790Z,23.95
2018-10-19T10:04:20.550Z,21.17
2018-10-19T10:06:47.883Z,21.80
2018-10-19T10:09:16.483Z,24.50
2018-10-19T10:11:43.885Z,27.40
2018-10-19T10:14:11.391Z,24.72
2018-10-19T10:16:38.726Z,21.80
2018-10-19T10:19:06.386Z,22.50
2018-10-19T10:21:33.608Z,22.17
2018-10-19T10:24:00.919Z,21.02
2018-10-19T10:26:28.214Z,20.55
2018-10-19T10:28:55.502Z,21.75
2018-10-19T10:31:23.226Z,21.55
2018-10-19T10:33:50.534Z,20.40
2018-10-19T10:36:17.841Z,22.32
2018-10-19T10:38:45.140Z,21.20
2018-10-19T10:41:12.426Z,19.25
2018-10-19T10:43:39.726Z,18.95
2018-10-19T10:46:07.087Z,18.37
2018-10-19T10:48:34.338Z,21.15
2018-10-19T10:51:01.676Z,21.23
2018-10-19T10:53:28.959Z,19.98
2018-10-19T10:55:56.350Z,23.67
2018-10-19T10:58:23.821Z,19.52
2018-10-19T11:00:51.101Z,20.48
2018-10-19T11:03:18.364Z,18.25
2018-10-19T11:05:45.674Z,18.57
2018-10-19T11:08:12.972Z,19.77
2018-10-19T11:10:40.404Z,22.50
2018-10-19T11:13:07.836Z,19.82
2018-10-19T11:15:35.150Z,24.60
2018-10-19T11:18:02.447Z,19.95
2018-10-19T11:20:29.815Z,21.05
2018-10-19T11:22:57.107Z,21.00
2018-10-19T11:25:24.421Z,23.73
2018-10-19T11:27:51.728Z,23.60
2018-10-19T11:30:19.343Z,19.20
2018-10-19T11:32:46.778Z,19.87
2018-10-19T11:35:14.064Z,19.23
2018-10-19T11:37:41.459Z,18.57
2018-10-19T11:40:18.788Z,21.55
2018-10-19T11:42:46.134Z,21.82
2018-10-19T11:45:13.455Z,19.40
2018-10-19T11:47:40.775Z,20.30
2018-10-19T11:50:08.084Z,20.65
2018-10-19T11:52:35.371Z,21.85
2018-10-19T11:55:02.713Z,21.35
2018-10-19T11:57:30.278Z,22.00
2018-10-19T11:59:57.594Z,23.25
2018-10-19T12:02:24.900Z,24.00
2018-10-19T12:04:52.238Z,22.73
2018-10-19T12:07:19.525Z,21.27
2018-10-19T12:09:46.808Z,23.73
2018-10-19T12:12:14.114Z,23.90
2018-10-19T12:14:41.454Z,19.87
2018-10-19T12:17:08.866Z,26.33
2018-10-19T12:19:36.279Z,23.27
2018-10-19T12:22:03.638Z,23.83
2018-10-19T12:24:31.268Z,22.48
2018-10-19T12:26:58.570Z,21.77
2018-10-19T12:29:25.870Z,22.20
2018-10-19T12:31:53.180Z,22.85
2018-10-19T12:34:20.470Z,20.52
2018-10-19T12:36:47.792Z,25.12
2018-10-19T12:39:15.172Z,21.65
2018-10-19T12:41:42.394Z,21.33
2018-10-19T12:44:09.728Z,21.87
2018-10-19T12:46:43.803Z,22.58
2018-10-19T12:49:12.477Z,21.45
2018-10-19T12:51:39.843Z,21.45
2018-10-19T12:54:07.492Z,24.20
2018-10-19T12:56:34.751Z,24.98
2018-10-19T12:59:02.063Z,23.60
2018-10-19T13:01:30.170Z,22.35
2018-10-19T13:03:57.927Z,23.05
2018-10-19T13:06:25.264Z,20.15
2018-10-19T13:08:52.960Z,21.33
2018-10-19T13:11:20.219Z,22.35
2018-10-19T13:13:47.533Z,23.38
2018-10-19T13:16:14.992Z,22.58
2018-10-19T13:18:42.365Z,21.68
2018-10-19T13:21:09.753Z,23.02
2018-10-19T13:23:37.390Z,22.25
2018-10-19T13:26:04.719Z,24.47
2018-10-19T13:28:32.156Z,24.05
2018-10-19T13:30:59.463Z,25.37
2018-10-19T13:33:26.906Z,22.65
2018-10-19T13:35:54.277Z,22.80
2018-10-19T13:38:22.470Z,25.00
2018-10-19T13:40:50.386Z,25.50
2018-10-19T13:43:18.594Z,25.10
2018-10-19T13:45:45.954Z,24.85
2018-10-19T13:48:14.228Z,22.48
2018-10-19T13:50:41.530Z,24.70
2018-10-19T13:53:08.957Z,27.73
2018-10-19T13:55:36.459Z,23.05
2018-10-19T13:58:03.770Z,24.20
2018-10-19T14:00:31.083Z,24.27
2018-10-19T14:02:58.764Z,25.10
2018-10-19T14:05:26.244Z,24.65
2018-10-19T14:07:53.466Z,27.90
2018-10-19T14:10:20.895Z,26.02
2018-10-19T14:12:48.199Z,24.60
2018-10-19T14:15:15.561Z,24.30
2018-10-19T14:17:42.773Z,23.25
2018-10-19T14:20:12.167Z,27.75
2018-10-19T14:22:39.781Z,26.70
2018-10-19T14:25:07.882Z,27.75
2018-10-19T14:27:35.793Z,27.17
2018-10-19T14:30:03.508Z,23.18
2018-10-19T14:32:30.798Z,29.57
2018-10-19T14:34:58.374Z,25.92
2018-10-19T14:37:25.683Z,22.13
2018-10-19T14:39:52.991Z,25.48
2018-10-19T14:42:20.294Z,23.25
2018-10-19T14:44:47.594Z,25.60
2018-10-19T14:47:14.938Z,24.55
2018-10-19T14:49:42.459Z,22.50
2018-10-19T14:52:09.813Z,24.43
2018-10-19T14:54:37.147Z,23.98
2018-10-19T14:57:04.868Z,23.45
2018-10-19T14:59:32.135Z,26.17
2018-10-19T15:01:59.441Z,30.95
2018-10-19T15:04:26.950Z,23.45
2018-10-19T15:06:54.519Z,22.37
2018-10-19T15:09:21.995Z,23.07
2018-10-19T15:11:49.294Z,21.35
2018-10-19T15:14:16.469Z,26.80
2018-10-19T15:16:43.913Z,22.50
2018-10-19T15:19:11.394Z,22.67
2018-10-19T15:21:38.750Z,21.30
2018-10-19T15:24:06.071Z,21.65
2018-10-19T15:26:33.324Z,23.00
2018-10-19T15:29:00.609Z,21.20
2018-10-19T15:31:27.903Z,23.77
2018-10-19T15:33:55.219Z,23.95
2018-10-19T15:36:22.512Z,24.72
2018-10-19T15:38:49.821Z,20.10
2018-10-19T15:41:17.171Z,25.55
2018-10-19T15:43:44.498Z,21.40
2018-10-19T15:46:11.801Z,24.72
2018-10-19T15:48:39.104Z,22.77
2018-10-19T15:51:06.467Z,24.15
2018-10-19T15:53:33.726Z,22.77
2018-10-19T15:56:01.034Z,24.05
2018-10-19T15:58:28.318Z,20.68
2018-10-19T16:00:55.583Z,22.82
2018-10-19T16:03:22.874Z,21.33
2018-10-19T16:05:50.185Z,24.35
2018-10-19T16:08:17.434Z,23.18
2018-10-19T16:10:44.778Z,22.52
2018-10-19T16:13:12.034Z,21.85
2018-10-19T16:15:39.348Z,23.42
2018-10-19T16:18:06.777Z,23.12
2018-10-19T16:20:34.110Z,23.22
2018-10-19T16:23:01.450Z,23.70
2018-10-19T16:25:28.755Z,22.48
2018-10-19T16:27:56.085Z,23.10
2018-10-19T16:30:23.383Z,21.95
2018-10-19T16:32:51.073Z,24.65
2018-10-19T16:35:18.380Z,24.50
2018-10-19T16:37:45.695Z,22.00
2018-10-19T16:40:12.987Z,22.45
2018-10-19T16:42:40.299Z,21.57
2018-10-19T16:45:08.315Z,20.40
2018-10-19T16:47:35.534Z,22.17
2018-10-19T16:50:02.910Z,23.70
2018-10-19T16:52:30.297Z,23.77
2018-10-19T16:54:57.628Z,22.48
2018-10-19T16:57:24.913Z,22.27
2018-10-19T16:59:52.652Z,21.23
2018-10-19T17:02:19.938Z,21.45
2018-10-19T17:04:47.338Z,20.90
2018-10-19T17:07:14.590Z,23.30
2018-10-19T17:09:41.887Z,20.40
2018-10-19T17:12:09.329Z,23.20
2018-10-19T17:14:36.591Z,21.97
2018-10-19T17:17:04.201Z,21.35
2018-10-19T17:19:31.515Z,20.57
2018-10-19T17:21:58.891Z,22.75
2018-10-19T17:24:26.262Z,22.20
2018-10-19T17:26:53.658Z,20.12
2018-10-19T17:29:20.995Z,23.27
2018-10-19T17:31:48.340Z,21.55
2018-10-19T17:34:15.716Z,22.32
2018-10-19T17:36:43.086Z,19.80
2018-10-19T17:39:11.540Z,18.87
2018-10-19T17:41:38.856Z,21.37
2018-10-19T17:44:06.277Z,20.20
2018-10-19T17:46:33.550Z,28.25
2018-10-19T17:49:00.824Z,19.95
2018-10-19T17:51:28.175Z,20.08
2018-10-19T17:53:55.973Z,18.32
2018-10-19T17:56:23.184Z,18.85
2018-10-19T17:58:50.485Z,18.35
2018-10-19T18:01:17.801Z,20.62
2018-10-19T18:03:45.372Z,26.40
2018-10-19T18:06:12.859Z,21.35
2018-10-19T18:08:40.071Z,26.68
2018-10-19T18:11:07.610Z,21.48
2018-10-19T18:13:34.983Z,25.92
2018-10-19T18:16:02.464Z,20.30
2018-10-19T18:18:29.654Z,22.93
2018-10-19T18:20:57.100Z,19.73
2018-10-19T18:23:24.793Z,20.68
2018-10-19T18:25:51.713Z,19.05
2018-10-19T18:28:19.028Z,20.08
2018-10-19T18:30:46.424Z,25.02
2018-10-19T18:33:13.735Z,20.25
2018-10-19T18:35:41.041Z,19.12
2018-10-19T18:38:08.451Z,22.67
2018-10-19T18:40:35.764Z,27.30
2018-10-19T18:43:03.187Z,19.17
2018-10-19T18:45:30.495Z,19.17
2018-10-19T18:47:57.774Z,19.57
2018-10-19T18:50:25.246Z,24.67
2018-10-19T18:52:52.494Z,22.10
2018-10-19T18:55:19.830Z,23.47
2018-10-19T18:57:47.185Z,22.35
2018-10-19T19:00:14.487Z,22.73
2018-10-19T19:02:41.791Z,22.00
2018-10-19T19:05:09.251Z,28.15
2018-10-19T19:07:36.487Z,22.30
2018-10-19T19:10:09.513Z,20.32
2018-10-19T19:12:36.921Z,22.45
2018-10-19T19:15:04.476Z,22.35
2018-10-19T19:17:31.846Z,23.22
2018-10-19T19:20:04.517Z,21.05
2018-10-19T19:22:31.848Z,23.75
2018-10-19T19:25:04.539Z,20.90
2018-10-19T19:27:31.834Z,23.47
2018-10-19T19:29:59.148Z,22.80
2018-10-19T19:32:26.440Z,19.98
2018-10-19T19:34:53.808Z,24.32
2018-10-19T19:37:21.058Z,21.70
2018-10-19T19:39:48.420Z,20.62
2018-10-19T19:42:21.072Z,25.17
2018-10-19T19:44:48.623Z,24.27
2018-10-19T19:47:21.328Z,24.82
2018-10-19T19:49:48.718Z,21.77
2018-10-19T19:52:17.163Z,21.40
2018-10-19T19:54:44.551Z,24.82
2018-10-19T19:57:11.886Z,24.87
2018-10-19T19:59:39.211Z,21.68
2018-10-19T20:02:06.730Z,22.70
2018-10-19T20:04:33.967Z,20.48
2018-10-19T20:07:01.599Z,23.22
2018-10-19T20:09:28.962Z,22.75
2018-10-19T20:11:56.282Z,21.65
2018-10-19T20:14:23.592Z,19.80
2018-10-19T20:16:50.950Z,22.37
2018-10-19T20:19:18.268Z,26.62
2018-10-19T20:21:45.583Z,20.57
2018-10-19T20:24:12.874Z,21.15
2018-10-19T20:26:40.620Z,24.05
2018-10-19T20:29:07.941Z,22.67
2018-10-19T20:31:35.330Z,22.87
2018-10-19T20:34:02.696Z,24.65
2018-10-19T20:36:30.033Z,22.65
2018-10-19T20:38:57.410Z,21.35
2018-10-19T20:41:24.862Z,28.42
2018-10-19T20:43:52.094Z,23.83
2018-10-19T20:46:19.458Z,21.33
2018-10-19T20:48:47.014Z,20.88
2018-10-19T20:51:14.428Z,23.20
2018-10-19T20:53:41.859Z,22.98
2018-10-19T20:56:09.182Z,25.55
2018-10-19T20:58:36.647Z,20.97
2018-10-19T21:01:03.964Z,23.98
2018-10-19T21:03:31.348Z,25.80
2018-10-19T21:05:58.748Z,23.47
2018-10-19T21:08:26.118Z,28.25
2018-10-19T21:10:53.517Z,32.03
2018-10-19T21:13:20.791Z,46.75
2018-10-19T21:15:48.117Z,32.50
2018-10-19T21:18:15.514Z,22.22
2018-10-19T21:20:42.830Z,28.20
2018-10-19T21:23:10.170Z,31.45
2018-10-19T21:25:37.443Z,29.27
2018-10-19T21:28:05.134Z,26.93
2018-10-19T21:30:32.458Z,23.47
2018-10-19T21:32:59.843Z,25.77
2018-10-19T21:35:27.159Z,34.70
2018-10-19T21:37:54.482Z,26.57
2018-10-19T21:40:21.788Z,24.47
2018-10-19T21:42:49.119Z,23.98
2018-10-19T21:45:16.464Z,25.92
2018-10-19T21:47:43.766Z,25.88
2018-10-19T21:50:11.113Z,23.85
2018-10-19T21:52:38.611Z,20.92
2018-10-19T21:55:06.463Z,22.32
2018-10-19T21:57:33.765Z,21.85
2018-10-19T22:00:01.122Z,21.05
2018-10-19T22:02:28.423Z,22.30
2018-10-19T22:04:55.738Z,21.00
2018-10-19T22:07:23.119Z,22.30
2018-10-19T22:09:50.426Z,23.45
2018-10-19T22:12:18.249Z,22.58
2018-10-19T22:14:45.577Z,23.12
2018-10-19T22:17:12.953Z,19.70
2018-10-19T22:19:40.176Z,19.07
2018-10-19T22:22:07.614Z,22.75
2018-10-19T22:24:34.940Z,22.25
2018-10-19T22:27:02.242Z,22.75
2018-10-19T22:29:29.594Z,21.62
2018-10-19T22:31:56.895Z,19.07
2018-10-19T22:34:24.284Z,21.12
2018-10-19T22:36:51.550Z,24.57
2018-10-19T22:39:19.271Z,23.55
2018-10-19T22:41:46.562Z,24.12
2018-10-19T22:44:13.943Z,22.35
2018-10-19T22:46:41.251Z,20.68
2018-10-19T22:49:08.675Z,19.25
2018-10-19T22:51:35.970Z,21.27
2018-10-19T22:54:03.317Z,24.37
2018-10-19T22:56:30.661Z,23.35
2018-10-19T22:58:57.991Z,20.43
2018-10-19T23:01:25.293Z,20.05
2018-10-19T23:03:52.715Z,23.45
2018-10-19T23:06:20.103Z,24.63
2018-10-19T23:08:47.346Z,22.15
2018-10-19T23:11:14.792Z,25.40
2018-10-19T23:13:42.120Z,22.40
2018-10-19T23:16:09.478Z,22.60
2018-10-19T23:18:36.758Z,20.45
2018-10-19T23:21:04.038Z,23.27
2018-10-19T23:23:31.363Z,22.60
2018-10-19T23:25:58.650Z,23.10
2018-10-19T23:28:25.961Z,23.90
2018-10-19T23:30:53.284Z,24.23
2018-10-19T23:33:20.584Z,22.93
2018-10-19T23:35:47.916Z,23.30
2018-10-19T23:38:15.181Z,23.42
2018-10-19T23:40:42.570Z,22.87
2018-10-19T23:43:09.972Z,21.85
2018-10-19T23:45:37.281Z,20.52
2018-10-19T23:48:04.605Z,24.15
2018-10-19T23:50:31.875Z,22.02
2018-10-19T23:52:59.239Z,20.90
2018-10-19T23:55:26.497Z,23.25
2018-10-19T23:57:53.834Z,25.37
